sensor_id;sensor_type;location;lat;lon;timestamp;pressure;altitude;pressure_sealevel;temperature;humidity
22104;BME280;11218;48.886;9.426;2023-08-06T00:00:27;97246.63;;;16.42;91.48
22104;BME280;11218;48.886;9.426;2023-08-06T00:02:55;97242.81;;;16.43;91.95
22104;BME280;11218;48.886;9.426;2023-08-06T00:05:25;97241.09;;;16.47;91.54
22104;BME280;11218;48.886;9.426;2023-08-06T00:07:53;97240.78;;;16.49;91.63
22104;BME280;11218;48.886;9.426;2023-08-06T00:10:21;97240.47;;;16.50;91.37
22104;BME280;11218;48.886;9.426;2023-08-06T00:12:49;97229.59;;;16.50;91.21
22104;BME280;11218;48.886;9.426;2023-08-06T00:15:18;97232.94;;;16.47;91.62
22104;BME280;11218;48.886;9.426;2023-08-06T00:17:46;97226.38;;;16.48;91.59
22104;BME280;11218;48.886;9.426;2023-08-06T00:20:15;97223.78;;;16.43;91.61
22104;BME280;11218;48.886;9.426;2023-08-06T00:22:44;97226.50;;;16.43;91.55
22104;BME280;11218;48.886;9.426;2023-08-06T00:25:12;97222.19;;;16.42;91.67
22104;BME280;11218;48.886;9.426;2023-08-06T00:27:40;97221.38;;;16.41;92.22
22104;BME280;11218;48.886;9.426;2023-08-06T00:30:09;97220.56;;;16.41;92.17
22104;BME280;11218;48.886;9.426;2023-08-06T00:32:37;97222.69;;;16.44;91.75
22104;BME280;11218;48.886;9.426;2023-08-06T00:35:06;97213.22;;;16.41;92.37
22104;BME280;11218;48.886;9.426;2023-08-06T00:37:34;97207.78;;;16.41;91.82
22104;BME280;11218;48.886;9.426;2023-08-06T00:40:06;97217.06;;;16.40;92.06
22104;BME280;11218;48.886;9.426;2023-08-06T00:42:34;97213.53;;;16.40;91.81
22104;BME280;11218;48.886;9.426;2023-08-06T00:45:02;97220.69;;;16.36;92.21
22104;BME280;11218;48.886;9.426;2023-08-06T00:47:31;97210.78;;;16.31;93.02
22104;BME280;11218;48.886;9.426;2023-08-06T00:49:59;97212.38;;;16.32;92.69
22104;BME280;11218;48.886;9.426;2023-08-06T00:52:27;97201.81;;;16.31;92.78
22104;BME280;11218;48.886;9.426;2023-08-06T00:54:56;97202.63;;;16.31;92.77
22104;BME280;11218;48.886;9.426;2023-08-06T00:57:25;97206.88;;;16.24;93.28
22104;BME280;11218;48.886;9.426;2023-08-06T00:59:54;97202.25;;;16.24;93.11
22104;BME280;11218;48.886;9.426;2023-08-06T01:02:22;97204.78;;;16.21;93.06
22104;BME280;11218;48.886;9.426;2023-08-06T01:04:51;97198.53;;;16.20;93.75
22104;BME280;11218;48.886;9.426;2023-08-06T01:07:32;97203.28;;;16.15;94.05
22104;BME280;11218;48.886;9.426;2023-08-06T01:10:17;97211.44;;;16.15;93.79
22104;BME280;11218;48.886;9.426;2023-08-06T01:12:54;97208.41;;;16.16;93.48
22104;BME280;11218;48.886;9.426;2023-08-06T01:15:28;97198.97;;;16.14;93.75
22104;BME280;11218;48.886;9.426;2023-08-06T01:17:57;97195.44;;;16.13;93.86
22104;BME280;11218;48.886;9.426;2023-08-06T01:20:29;97191.63;;;16.14;94.12
22104;BME280;11218;48.886;9.426;2023-08-06T01:22:58;97187.59;;;16.12;94.45
22104;BME280;11218;48.886;9.426;2023-08-06T01:25:30;97186.59;;;16.07;94.49
22104;BME280;11218;48.886;9.426;2023-08-06T01:28:05;97179.28;;;16.08;94.49
22104;BME280;11218;48.886;9.426;2023-08-06T01:30:39;97167.41;;;16.04;94.48
22104;BME280;11218;48.886;9.426;2023-08-06T01:33:14;97172.03;;;16.03;94.36
22104;BME280;11218;48.886;9.426;2023-08-06T01:35:46;97168.34;;;15.99;94.21
22104;BME280;11218;48.886;9.426;2023-08-06T01:38:16;97165.91;;;15.98;94.38
22104;BME280;11218;48.886;9.426;2023-08-06T01:40:44;97159.81;;;15.92;94.06
22104;BME280;11218;48.886;9.426;2023-08-06T01:43:12;97159.50;;;15.94;93.82
22104;BME280;11218;48.886;9.426;2023-08-06T01:45:40;97157.59;;;15.94;93.73
22104;BME280;11218;48.886;9.426;2023-08-06T01:48:08;97164.31;;;15.97;93.47
22104;BME280;11218;48.886;9.426;2023-08-06T01:50:36;97154.56;;;15.96;93.23
22104;BME280;11218;48.886;9.426;2023-08-06T01:53:06;97166.22;;;15.96;92.51
22104;BME280;11218;48.886;9.426;2023-08-06T01:55:34;97159.31;;;15.90;92.95
22104;BME280;11218;48.886;9.426;2023-08-06T01:58:02;97164.25;;;15.88;92.87
22104;BME280;11218;48.886;9.426;2023-08-06T02:00:30;97158.81;;;15.88;93.68
22104;BME280;11218;48.886;9.426;2023-08-06T02:02:58;97143.31;;;15.89;93.28
22104;BME280;11218;48.886;9.426;2023-08-06T02:05:27;97156.97;;;15.97;92.09
22104;BME280;11218;48.886;9.426;2023-08-06T02:07:54;97149.25;;;15.91;92.39
22104;BME280;11218;48.886;9.426;2023-08-06T02:10:24;97152.16;;;15.94;92.17
22104;BME280;11218;48.886;9.426;2023-08-06T02:12:52;97151.63;;;16.06;90.97
22104;BME280;11218;48.886;9.426;2023-08-06T02:15:20;97135.16;;;16.02;90.76
22104;BME280;11218;48.886;9.426;2023-08-06T02:17:48;97145.50;;;16.00;90.56
22104;BME280;11218;48.886;9.426;2023-08-06T02:20:16;97143.09;;;15.99;90.95
22104;BME280;11218;48.886;9.426;2023-08-06T02:22:44;97145.81;;;15.99;90.84
22104;BME280;11218;48.886;9.426;2023-08-06T02:25:12;97136.69;;;15.95;90.86
22104;BME280;11218;48.886;9.426;2023-08-06T02:27:42;97131.06;;;15.91;90.23
22104;BME280;11218;48.886;9.426;2023-08-06T02:30:10;97124.31;;;15.89;90.83
22104;BME280;11218;48.886;9.426;2023-08-06T02:32:38;97124.63;;;15.87;90.45
22104;BME280;11218;48.886;9.426;2023-08-06T02:35:07;97124.94;;;15.86;90.38
22104;BME280;11218;48.886;9.426;2023-08-06T02:37:35;97120.00;;;15.88;90.12
22104;BME280;11218;48.886;9.426;2023-08-06T02:40:05;97114.38;;;15.84;90.53
22104;BME280;11218;48.886;9.426;2023-08-06T02:42:33;97108.78;;;15.81;90.91
22104;BME280;11218;48.886;9.426;2023-08-06T02:45:03;97104.84;;;15.87;90.52
22104;BME280;11218;48.886;9.426;2023-08-06T02:47:31;97107.34;;;15.83;90.35
22104;BME280;11218;48.886;9.426;2023-08-06T02:50:00;97096.50;;;15.83;90.42
22104;BME280;11218;48.886;9.426;2023-08-06T02:52:28;97101.75;;;15.80;90.76
22104;BME280;11218;48.886;9.426;2023-08-06T02:54:56;97102.13;;;15.87;90.42
22104;BME280;11218;48.886;9.426;2023-08-06T02:57:27;97093.59;;;15.80;90.98
22104;BME280;11218;48.886;9.426;2023-08-06T02:59:55;97097.72;;;15.77;91.05
22104;BME280;11218;48.886;9.426;2023-08-06T03:02:24;97099.13;;;15.74;91.29
22104;BME280;11218;48.886;9.426;2023-08-06T03:04:53;97098.16;;;15.70;90.89
22104;BME280;11218;48.886;9.426;2023-08-06T03:07:21;97096.53;;;15.69;91.14
22104;BME280;11218;48.886;9.426;2023-08-06T03:09:49;97091.19;;;15.78;89.66
22104;BME280;11218;48.886;9.426;2023-08-06T03:12:17;97080.16;;;15.74;89.38
22104;BME280;11218;48.886;9.426;2023-08-06T03:14:45;97082.38;;;15.72;89.13
22104;BME280;11218;48.886;9.426;2023-08-06T03:17:13;97075.34;;;15.71;89.14
22104;BME280;11218;48.886;9.426;2023-08-06T03:19:45;97085.19;;;15.67;89.01
22104;BME280;11218;48.886;9.426;2023-08-06T03:22:13;97079.06;;;15.62;88.53
22104;BME280;11218;48.886;9.426;2023-08-06T03:24:41;97072.69;;;15.58;88.97
22104;BME280;11218;48.886;9.426;2023-08-06T03:27:09;97074.88;;;15.56;88.84
22104;BME280;11218;48.886;9.426;2023-08-06T03:29:37;97072.47;;;15.54;88.82
22104;BME280;11218;48.886;9.426;2023-08-06T03:32:06;97074.88;;;15.56;89.01
22104;BME280;11218;48.886;9.426;2023-08-06T03:34:34;97073.88;;;15.52;88.34
22104;BME280;11218;48.886;9.426;2023-08-06T03:37:05;97077.38;;;15.52;87.77
22104;BME280;11218;48.886;9.426;2023-08-06T03:39:33;97076.69;;;15.47;87.21
22104;BME280;11218;48.886;9.426;2023-08-06T03:42:01;97078.13;;;15.44;87.23
22104;BME280;11218;48.886;9.426;2023-08-06T03:44:29;97077.31;;;15.43;88.01
22104;BME280;11218;48.886;9.426;2023-08-06T03:46:57;97081.81;;;15.48;86.75
22104;BME280;11218;48.886;9.426;2023-08-06T03:49:25;97093.47;;;15.49;87.29
22104;BME280;11218;48.886;9.426;2023-08-06T03:51:53;97085.94;;;15.45;87.37
22104;BME280;11218;48.886;9.426;2023-08-06T03:54:23;97088.03;;;15.49;87.34
22104;BME280;11218;48.886;9.426;2023-08-06T03:56:51;97083.72;;;15.48;87.34
22104;BME280;11218;48.886;9.426;2023-08-06T03:59:19;97082.13;;;15.47;87.60
22104;BME280;11218;48.886;9.426;2023-08-06T04:01:47;97076.41;;;15.48;88.07
22104;BME280;11218;48.886;9.426;2023-08-06T04:04:16;97083.31;;;15.54;87.48
22104;BME280;11218;48.886;9.426;2023-08-06T04:06:44;97081.09;;;15.56;87.35
22104;BME280;11218;48.886;9.426;2023-08-06T04:09:12;97081.72;;;15.53;87.07
22104;BME280;11218;48.886;9.426;2023-08-06T04:11:41;97074.97;;;15.51;87.61
22104;BME280;11218;48.886;9.426;2023-08-06T04:14:09;97077.50;;;15.47;87.81
22104;BME280;11218;48.886;9.426;2023-08-06T04:16:38;97079.41;;;15.47;88.13
22104;BME280;11218;48.886;9.426;2023-08-06T04:19:06;97079.41;;;15.47;88.15
22104;BME280;11218;48.886;9.426;2023-08-06T04:21:34;97083.44;;;15.49;88.09
22104;BME280;11218;48.886;9.426;2023-08-06T04:24:03;97079.72;;;15.45;88.58
22104;BME280;11218;48.886;9.426;2023-08-06T04:26:31;97085.94;;;15.45;88.78
22104;BME280;11218;48.886;9.426;2023-08-06T04:29:00;97087.66;;;15.41;89.18
22104;BME280;11218;48.886;9.426;2023-08-06T04:31:29;97085.94;;;15.45;89.09
22104;BME280;11218;48.886;9.426;2023-08-06T04:33:57;97092.97;;;15.47;89.03
22104;BME280;11218;48.886;9.426;2023-08-06T04:36:25;97089.38;;;15.37;89.71
22104;BME280;11218;48.886;9.426;2023-08-06T04:38:53;97089.47;;;15.32;90.40
22104;BME280;11218;48.886;9.426;2023-08-06T04:41:22;97089.28;;;15.29;90.56
22104;BME280;11218;48.886;9.426;2023-08-06T04:43:50;97091.19;;;15.28;90.73
22104;BME280;11218;48.886;9.426;2023-08-06T04:46:20;97088.19;;;15.30;90.39
22104;BME280;11218;48.886;9.426;2023-08-06T04:48:48;97084.88;;;15.19;91.45
22104;BME280;11218;48.886;9.426;2023-08-06T04:51:16;97084.69;;;15.16;91.76
22104;BME280;11218;48.886;9.426;2023-08-06T04:53:44;97083.28;;;15.18;91.99
22104;BME280;11218;48.886;9.426;2023-08-06T04:56:12;97093.50;;;15.21;92.15
22104;BME280;11218;48.886;9.426;2023-08-06T04:58:40;97095.31;;;15.26;91.64
22104;BME280;11218;48.886;9.426;2023-08-06T05:01:08;97095.50;;;15.29;91.70
22104;BME280;11218;48.886;9.426;2023-08-06T05:03:38;97077.84;;;15.32;91.88
22104;BME280;11218;48.886;9.426;2023-08-06T05:06:06;97085.66;;;15.33;92.35
22104;BME280;11218;48.886;9.426;2023-08-06T05:08:34;97094.00;;;15.37;92.13
22104;BME280;11218;48.886;9.426;2023-08-06T05:11:02;97094.00;;;15.37;91.82
22104;BME280;11218;48.886;9.426;2023-08-06T05:13:30;97086.25;;;15.44;91.06
22104;BME280;11218;48.886;9.426;2023-08-06T05:15:58;97087.16;;;15.39;91.09
22104;BME280;11218;48.886;9.426;2023-08-06T05:18:26;97099.63;;;15.40;91.41
22104;BME280;11218;48.886;9.426;2023-08-06T05:20:56;97104.22;;;15.40;91.59
22104;BME280;11218;48.886;9.426;2023-08-06T05:23:24;97100.72;;;15.39;91.57
22104;BME280;11218;48.886;9.426;2023-08-06T05:25:52;97102.13;;;15.37;91.56
22104;BME280;11218;48.886;9.426;2023-08-06T05:28:20;97102.63;;;15.39;92.09
22104;BME280;11218;48.886;9.426;2023-08-06T05:30:49;97099.63;;;15.40;92.02
22104;BME280;11218;48.886;9.426;2023-08-06T05:33:17;97099.81;;;15.44;92.19
22104;BME280;11218;48.886;9.426;2023-08-06T05:35:45;97101.09;;;15.47;92.31
22104;BME280;11218;48.886;9.426;2023-08-06T05:38:14;97093.66;;;15.52;92.28
22104;BME280;11218;48.886;9.426;2023-08-06T05:40:42;97094.38;;;15.58;92.52
22104;BME280;11218;48.886;9.426;2023-08-06T05:43:10;97097.25;;;15.61;91.26
22104;BME280;11218;48.886;9.426;2023-08-06T05:45:38;97091.03;;;15.61;90.54
22104;BME280;11218;48.886;9.426;2023-08-06T05:48:06;97098.06;;;15.62;90.83
22104;BME280;11218;48.886;9.426;2023-08-06T05:50:34;97093.94;;;15.64;91.07
22104;BME280;11218;48.886;9.426;2023-08-06T05:53:02;97107.78;;;15.76;90.98
22104;BME280;11218;48.886;9.426;2023-08-06T05:55:32;97107.78;;;15.76;91.08
22104;BME280;11218;48.886;9.426;2023-08-06T05:58:00;97106.38;;;15.79;91.10
22104;BME280;11218;48.886;9.426;2023-08-06T06:00:28;97110.69;;;15.80;91.55
22104;BME280;11218;48.886;9.426;2023-08-06T06:02:56;97113.28;;;15.85;91.22
22104;BME280;11218;48.886;9.426;2023-08-06T06:05:25;97111.78;;;15.79;91.17
22104;BME280;11218;48.886;9.426;2023-08-06T06:07:53;97110.69;;;15.80;90.89
22104;BME280;11218;48.886;9.426;2023-08-06T06:10:21;97115.91;;;15.76;90.63
22104;BME280;11218;48.886;9.426;2023-08-06T06:12:51;97109.81;;;15.71;91.16
22104;BME280;11218;48.886;9.426;2023-08-06T06:15:19;97111.09;;;15.73;90.83
22104;BME280;11218;48.886;9.426;2023-08-06T06:17:47;97104.75;;;15.78;90.63
22104;BME280;11218;48.886;9.426;2023-08-06T06:20:15;97109.38;;;15.77;89.92
22104;BME280;11218;48.886;9.426;2023-08-06T06:22:43;97109.50;;;15.72;90.41
22104;BME280;11218;48.886;9.426;2023-08-06T06:25:12;97109.81;;;15.71;90.77
22104;BME280;11218;48.886;9.426;2023-08-06T06:27:40;97110.59;;;15.71;90.83
22104;BME280;11218;48.886;9.426;2023-08-06T06:30:10;97118.13;;;15.74;90.89
22104;BME280;11218;48.886;9.426;2023-08-06T06:32:41;97114.81;;;15.77;90.56
22104;BME280;11218;48.886;9.426;2023-08-06T06:35:09;97117.81;;;15.76;90.68
22104;BME280;11218;48.886;9.426;2023-08-06T06:37:37;97125.34;;;15.79;90.84
22104;BME280;11218;48.886;9.426;2023-08-06T06:40:06;97126.97;;;15.80;91.31
22104;BME280;11218;48.886;9.426;2023-08-06T06:42:35;97122.94;;;15.77;91.39
22104;BME280;11218;48.886;9.426;2023-08-06T06:45:03;97122.72;;;15.88;91.69
22104;BME280;11218;48.886;9.426;2023-08-06T06:47:33;97130.19;;;15.82;91.49
22104;BME280;11218;48.886;9.426;2023-08-06T06:50:02;97126.59;;;15.73;92.05
22104;BME280;11218;48.886;9.426;2023-08-06T06:52:30;97127.50;;;15.68;92.42
22104;BME280;11218;48.886;9.426;2023-08-06T06:54:58;97135.03;;;15.71;92.36
22104;BME280;11218;48.886;9.426;2023-08-06T06:57:26;97131.00;;;15.69;92.85
22104;BME280;11218;48.886;9.426;2023-08-06T06:59:54;97133.13;;;15.72;92.61
22104;BME280;11218;48.886;9.426;2023-08-06T07:02:22;97126.09;;;15.71;92.52
22104;BME280;11218;48.886;9.426;2023-08-06T07:04:52;97124.88;;;15.77;91.60
22104;BME280;11218;48.886;9.426;2023-08-06T07:07:20;97129.19;;;15.78;90.36
22104;BME280;11218;48.886;9.426;2023-08-06T07:09:48;97131.22;;;15.72;91.23
22104;BME280;11218;48.886;9.426;2023-08-06T07:12:16;97136.94;;;15.71;91.13
22104;BME280;11218;48.886;9.426;2023-08-06T07:14:44;97138.03;;;15.70;91.88
22104;BME280;11218;48.886;9.426;2023-08-06T07:17:12;97134.53;;;15.69;92.01
22104;BME280;11218;48.886;9.426;2023-08-06T07:19:40;97143.97;;;15.72;91.77
22104;BME280;11218;48.886;9.426;2023-08-06T07:22:10;97137.84;;;15.66;92.50
22104;BME280;11218;48.886;9.426;2023-08-06T07:24:38;97135.81;;;15.72;92.60
22104;BME280;11218;48.886;9.426;2023-08-06T07:27:06;97128.38;;;15.77;91.65
22104;BME280;11218;48.886;9.426;2023-08-06T07:29:34;97135.81;;;15.72;91.49
22104;BME280;11218;48.886;9.426;2023-08-06T07:32:03;97136.31;;;15.74;91.84
22104;BME280;11218;48.886;9.426;2023-08-06T07:34:31;97136.41;;;15.83;91.93
22104;BME280;11218;48.886;9.426;2023-08-06T07:36:59;97137.94;;;15.75;91.88
22104;BME280;11218;48.886;9.426;2023-08-06T07:39:29;97147.97;;;15.74;92.25
22104;BME280;11218;48.886;9.426;2023-08-06T07:41:57;97152.81;;;15.77;90.46
22104;BME280;11218;48.886;9.426;2023-08-06T07:44:25;97146.59;;;15.63;90.83
22104;BME280;11218;48.886;9.426;2023-08-06T07:46:53;97145.19;;;15.66;90.78
22104;BME280;11218;48.886;9.426;2023-08-06T07:49:21;97143.22;;;15.58;91.40
22104;BME280;11218;48.886;9.426;2023-08-06T07:51:49;97146.50;;;15.55;92.24
22104;BME280;11218;48.886;9.426;2023-08-06T07:54:18;97148.66;;;15.58;91.64
22104;BME280;11218;48.886;9.426;2023-08-06T07:56:48;97142.69;;;15.56;91.59
22104;BME280;11218;48.886;9.426;2023-08-06T07:59:16;97142.19;;;15.54;91.79
22104;BME280;11218;48.886;9.426;2023-08-06T08:01:44;97144.31;;;15.57;92.66
22104;BME280;11218;48.886;9.426;2023-08-06T08:04:12;97143.72;;;15.60;92.16
22104;BME280;11218;48.886;9.426;2023-08-06T08:06:41;97149.00;;;15.65;91.63
22104;BME280;11218;48.886;9.426;2023-08-06T08:09:09;97149.00;;;15.65;91.54
22104;BME280;11218;48.886;9.426;2023-08-06T08:11:37;97142.16;;;15.67;91.93
22104;BME280;11218;48.886;9.426;2023-08-06T08:14:07;97150.91;;;15.78;90.87
22104;BME280;11218;48.886;9.426;2023-08-06T08:16:35;97149.69;;;15.70;90.78
22104;BME280;11218;48.886;9.426;2023-08-06T08:19:03;97140.75;;;15.70;91.70
22104;BME280;11218;48.886;9.426;2023-08-06T08:21:31;97135.34;;;15.70;92.37
22104;BME280;11218;48.886;9.426;2023-08-06T08:23:59;97138.75;;;15.75;91.52
22104;BME280;11218;48.886;9.426;2023-08-06T08:26:28;97138.13;;;15.78;91.73
22104;BME280;11218;48.886;9.426;2023-08-06T08:28:56;97140.53;;;15.80;90.56
22104;BME280;11218;48.886;9.426;2023-08-06T08:31:26;97133.81;;;15.77;91.46
22104;BME280;11218;48.886;9.426;2023-08-06T08:33:55;97133.81;;;15.77;91.47
22104;BME280;11218;48.886;9.426;2023-08-06T08:36:25;97136.47;;;15.91;90.06
22104;BME280;11218;48.886;9.426;2023-08-06T08:38:53;97135.38;;;15.92;90.78
22104;BME280;11218;48.886;9.426;2023-08-06T08:41:22;97135.16;;;16.02;90.69
22104;BME280;11218;48.886;9.426;2023-08-06T08:43:50;97139.22;;;16.14;89.62
22104;BME280;11218;48.886;9.426;2023-08-06T08:46:20;97128.44;;;16.22;89.91
22104;BME280;11218;48.886;9.426;2023-08-06T08:48:49;97133.44;;;16.29;89.39
22104;BME280;11218;48.886;9.426;2023-08-06T08:51:17;97130.25;;;16.35;87.65
22104;BME280;11218;48.886;9.426;2023-08-06T08:53:47;97123.41;;;16.38;87.15
22104;BME280;11218;48.886;9.426;2023-08-06T08:56:17;97133.78;;;16.36;88.17
22104;BME280;11218;48.886;9.426;2023-08-06T08:58:45;97122.16;;;16.44;87.66
22104;BME280;11218;48.886;9.426;2023-08-06T09:01:14;97122.78;;;16.41;87.02
22104;BME280;11218;48.886;9.426;2023-08-06T09:03:44;97121.19;;;16.40;86.48
22104;BME280;11218;48.886;9.426;2023-08-06T09:06:13;97128.34;;;16.36;85.76
22104;BME280;11218;48.886;9.426;2023-08-06T09:08:47;97122.75;;;16.32;85.77
22104;BME280;11218;48.886;9.426;2023-08-06T09:11:18;97124.09;;;16.21;86.95
22104;BME280;11218;48.886;9.426;2023-08-06T09:13:48;97122.50;;;16.20;86.94
22104;BME280;11218;48.886;9.426;2023-08-06T09:16:16;97133.44;;;16.29;87.29
22104;BME280;11218;48.886;9.426;2023-08-06T09:18:44;97125.94;;;16.34;87.37
22104;BME280;11218;48.886;9.426;2023-08-06T09:21:16;97146.63;;;16.22;86.57
22104;BME280;11218;48.886;9.426;2023-08-06T09:23:44;97147.97;;;16.10;87.68
22104;BME280;11218;48.886;9.426;2023-08-06T09:26:12;97142.75;;;16.14;88.84
22104;BME280;11218;48.886;9.426;2023-08-06T09:28:42;97148.72;;;16.02;89.36
22104;BME280;11218;48.886;9.426;2023-08-06T09:31:10;97149.94;;;15.96;89.62
22104;BME280;11218;48.886;9.426;2023-08-06T09:33:39;97148.16;;;15.92;90.42
22104;BME280;11218;48.886;9.426;2023-08-06T09:36:08;97159.41;;;15.85;89.81
22104;BME280;11218;48.886;9.426;2023-08-06T09:38:39;97158.13;;;15.83;90.09
22104;BME280;11218;48.886;9.426;2023-08-06T09:41:08;97152.81;;;15.77;90.72
22104;BME280;11218;48.886;9.426;2023-08-06T09:43:40;97171.31;;;15.75;91.73
22104;BME280;11218;48.886;9.426;2023-08-06T09:46:13;97164.56;;;15.73;92.15
22104;BME280;11218;48.886;9.426;2023-08-06T09:48:46;97166.69;;;15.76;91.83
22104;BME280;11218;48.886;9.426;2023-08-06T09:51:14;97171.38;;;15.84;92.45
22104;BME280;11218;48.886;9.426;2023-08-06T09:53:45;97167.16;;;15.92;92.81
22104;BME280;11218;48.886;9.426;2023-08-06T09:56:15;97163.31;;;15.93;93.11
22104;BME280;11218;48.886;9.426;2023-08-06T09:58:47;97166.22;;;15.96;92.46
22104;BME280;11218;48.886;9.426;2023-08-06T10:01:17;97167.94;;;15.92;92.59
22104;BME280;11218;48.886;9.426;2023-08-06T10:03:47;97162.63;;;15.87;91.56
22104;BME280;11218;48.886;9.426;2023-08-06T10:06:17;97178.81;;;15.92;91.42
22104;BME280;11218;48.886;9.426;2023-08-06T10:08:47;97176.41;;;15.91;91.85
22104;BME280;11218;48.886;9.426;2023-08-06T10:11:17;97174.41;;;15.83;92.86
22104;BME280;11218;48.886;9.426;2023-08-06T10:13:45;97167.88;;;15.84;92.74
22104;BME280;11218;48.886;9.426;2023-08-06T10:16:15;97169.47;;;15.85;93.32
22104;BME280;11218;48.886;9.426;2023-08-06T10:18:44;97168.13;;;15.96;92.60
22104;BME280;11218;48.886;9.426;2023-08-06T10:21:13;97172.75;;;15.95;92.42
22104;BME280;11218;48.886;9.426;2023-08-06T10:23:42;97168.56;;;15.89;92.80
22104;BME280;11218;48.886;9.426;2023-08-06T10:26:12;97169.06;;;15.91;93.04
22104;BME280;11218;48.886;9.426;2023-08-06T10:28:42;97169.06;;;15.91;93.62
22104;BME280;11218;48.886;9.426;2023-08-06T10:31:10;97167.66;;;15.94;94.64
22104;BME280;11218;48.886;9.426;2023-08-06T10:33:42;97167.72;;;16.02;94.06
22104;BME280;11218;48.886;9.426;2023-08-06T10:36:12;97171.44;;;16.06;94.61
22104;BME280;11218;48.886;9.426;2023-08-06T10:38:50;97173.41;;;16.15;94.69
22104;BME280;11218;48.886;9.426;2023-08-06T10:41:32;97175.09;;;16.24;92.55
22104;BME280;11218;48.886;9.426;2023-08-06T10:44:07;97167.75;;;16.25;91.61
22104;BME280;11218;48.886;9.426;2023-08-06T10:46:37;97164.34;;;16.19;91.60
22104;BME280;11218;48.886;9.426;2023-08-06T10:49:05;97170.81;;;16.09;91.61
22104;BME280;11218;48.886;9.426;2023-08-06T10:51:34;97178.22;;;16.18;92.17
22104;BME280;11218;48.886;9.426;2023-08-06T10:54:04;97170.69;;;16.15;89.24
22104;BME280;11218;48.886;9.426;2023-08-06T10:56:40;97188.53;;;16.07;89.19
22104;BME280;11218;48.886;9.426;2023-08-06T10:59:08;97173.75;;;15.99;90.38
22104;BME280;11218;48.886;9.426;2023-08-06T11:01:37;97178.78;;;16.06;89.17
22104;BME280;11218;48.886;9.426;2023-08-06T11:04:05;97174.44;;;16.05;88.21
22104;BME280;11218;48.886;9.426;2023-08-06T11:06:33;97182.09;;;16.03;88.53
22104;BME280;11218;48.886;9.426;2023-08-06T11:09:02;97179.06;;;16.04;88.38
22104;BME280;11218;48.886;9.426;2023-08-06T11:11:30;97193.69;;;15.95;88.48
22104;BME280;11218;48.886;9.426;2023-08-06T11:13:59;97195.09;;;15.92;88.27
22104;BME280;11218;48.886;9.426;2023-08-06T11:16:28;97208.47;;;15.89;87.76
22104;BME280;11218;48.886;9.426;2023-08-06T11:18:56;97207.88;;;15.78;84.99
22104;BME280;11218;48.886;9.426;2023-08-06T11:21:26;97215.63;;;15.71;86.18
22104;BME280;11218;48.886;9.426;2023-08-06T11:23:55;97207.78;;;15.69;87.67
22104;BME280;11218;48.886;9.426;2023-08-06T11:26:23;97225.88;;;15.60;88.17
22104;BME280;11218;48.886;9.426;2023-08-06T11:28:52;97231.00;;;15.62;85.34
22104;BME280;11218;48.886;9.426;2023-08-06T11:31:22;97225.09;;;15.60;87.29
22104;BME280;11218;48.886;9.426;2023-08-06T11:33:50;97225.41;;;15.58;87.94
22104;BME280;11218;48.886;9.426;2023-08-06T11:36:29;97216.75;;;15.56;87.40
22104;BME280;11218;48.886;9.426;2023-08-06T11:38:57;97224.97;;;15.51;87.39
22104;BME280;11218;48.886;9.426;2023-08-06T11:41:27;97226.28;;;15.54;87.97
22104;BME280;11218;48.886;9.426;2023-08-06T11:43:56;97227.38;;;15.53;89.51
22104;BME280;11218;48.886;9.426;2023-08-06T11:46:25;97227.19;;;15.49;88.78
22104;BME280;11218;48.886;9.426;2023-08-06T11:48:54;97230.09;;;15.53;87.10
22104;BME280;11218;48.886;9.426;2023-08-06T11:51:23;97224.97;;;15.51;86.47
22104;BME280;11218;48.886;9.426;2023-08-06T11:53:54;97230.31;;;15.56;86.06
22104;BME280;11218;48.886;9.426;2023-08-06T11:56:24;97225.47;;;15.53;85.26
22104;BME280;11218;48.886;9.426;2023-08-06T11:58:52;97242.97;;;15.47;86.23
22104;BME280;11218;48.886;9.426;2023-08-06T12:01:20;97237.53;;;15.47;86.63
22104;BME280;11218;48.886;9.426;2023-08-06T12:03:49;97266.06;;;15.44;86.19
22104;BME280;11218;48.886;9.426;2023-08-06T12:06:17;97255.09;;;15.36;86.21
22104;BME280;11218;48.886;9.426;2023-08-06T12:08:45;97265.44;;;15.34;87.31
22104;BME280;11218;48.886;9.426;2023-08-06T12:11:14;97267.53;;;15.23;87.76
22104;BME280;11218;48.886;9.426;2023-08-06T12:13:43;97284.69;;;15.19;87.91
22104;BME280;11218;48.886;9.426;2023-08-06T12:16:11;97286.69;;;15.13;87.90
22104;BME280;11218;48.886;9.426;2023-08-06T12:18:40;97303.84;;;15.08;88.39
22104;BME280;11218;48.886;9.426;2023-08-06T12:21:09;97279.84;;;15.02;89.35
22104;BME280;11218;48.886;9.426;2023-08-06T12:23:37;97298.88;;;14.97;89.52
22104;BME280;11218;48.886;9.426;2023-08-06T12:26:05;97295.66;;;14.95;90.11
22104;BME280;11218;48.886;9.426;2023-08-06T12:28:34;97302.69;;;14.96;89.94
22104;BME280;11218;48.886;9.426;2023-08-06T12:31:02;97309.81;;;14.92;90.48
22104;BME280;11218;48.886;9.426;2023-08-06T12:33:30;97318.81;;;14.87;90.85
22104;BME280;11218;48.886;9.426;2023-08-06T12:35:58;97321.53;;;14.87;90.62
22104;BME280;11218;48.886;9.426;2023-08-06T12:38:28;97327.56;;;14.84;91.03
22104;BME280;11218;48.886;9.426;2023-08-06T12:40:59;97318.13;;;14.82;91.25
22104;BME280;11218;48.886;9.426;2023-08-06T12:43:27;97324.72;;;14.75;90.80
22104;BME280;11218;48.886;9.426;2023-08-06T12:45:55;97321.78;;;14.72;91.58
22104;BME280;11218;48.886;9.426;2023-08-06T12:48:23;97322.38;;;14.69;90.68
22104;BME280;11218;48.886;9.426;2023-08-06T12:50:51;97332.94;;;14.70;92.25
22104;BME280;11218;48.886;9.426;2023-08-06T12:53:19;97330.50;;;14.69;93.16
22104;BME280;11218;48.886;9.426;2023-08-06T12:55:51;97343.69;;;14.75;91.55
22104;BME280;11218;48.886;9.426;2023-08-06T12:58:19;97333.16;;;14.74;91.88
22104;BME280;11218;48.886;9.426;2023-08-06T13:00:47;97341.28;;;14.74;91.44
22104;BME280;11218;48.886;9.426;2023-08-06T13:03:15;97337.19;;;14.76;89.46
22104;BME280;11218;48.886;9.426;2023-08-06T13:05:43;97343.97;;;14.74;89.39
22104;BME280;11218;48.886;9.426;2023-08-06T13:08:12;97343.63;;;14.81;89.22